Time;durP1;ratioP1;P1;durP2;ratioP2;P2;SDS_P1;SDS_P2;PMS_P1;PMS_P2;Temp;Humidity;BMP_temperature;BMP_pressure;BME280_temperature;BME280_humidity;BME280_pressure;Samples;Min_cycle;Max_cycle;Signal;HPM_P1;HPM_P2
2024/04/10 00:00:14;;;;;;;;;;;7.50;99.90;;;6.49;100.00;98408.03;5430977;26;1956;-69
2024/04/10 00:02:42;;;;;;;;;;;7.60;99.90;;;6.60;100.00;98413.03;5431070;26;1556;-69
2024/04/10 00:05:09;;;;;;;;;;;7.70;99.90;;;6.65;100.00;98413.84;5441283;26;1700;-70
2024/04/10 00:07:36;;;;;;;;;;;7.70;99.90;;;6.58;100.00;98407.91;5423908;26;1700;-70
2024/04/10 00:10:04;;;;;;;;;;;7.70;99.90;;;6.45;100.00;98412.38;5431248;26;1723;-70
2024/04/10 00:12:31;;;;;;;;;;;7.70;99.90;;;6.33;100.00;98411.66;5422882;26;3831;-70
2024/04/10 00:14:58;;;;;;;;;;;7.70;99.90;;;6.32;100.00;98422.84;5425368;26;1727;-70
2024/04/10 00:17:29;;;;;;;;;;;7.60;99.90;;;6.32;100.00;98428.00;5428655;26;1518;-70
2024/04/10 00:19:56;;;;;;;;;;;7.50;99.90;;;6.34;100.00;98426.25;5434039;26;1684;-70
2024/04/10 00:22:23;;;;;;;;;;;7.50;99.90;;;6.34;100.00;98427.13;5429441;26;1608;-70
2024/04/10 00:24:53;;;;;;;;;;;7.40;99.90;;;6.22;100.00;98435.84;5429570;26;1604;-70
2024/04/10 00:27:22;;;;;;;;;;;7.40;99.90;;;6.09;100.00;98439.44;5438730;26;2524;-70
2024/04/10 00:29:50;;;;;;;;;;;7.30;99.90;;;6.00;100.00;98440.38;5425422;26;1726;-70
2024/04/10 00:32:18;;;;;;;;;;;7.30;99.90;;;6.00;100.00;98452.44;5427301;26;1695;-69
2024/04/10 00:34:45;;;;;;;;;;;7.20;99.90;;;6.08;100.00;98455.75;5428021;26;1656;-70
2024/04/10 00:37:12;;;;;;;;;;;7.10;99.90;;;6.23;100.00;98458.19;5423744;26;1746;-69
2024/04/10 00:39:39;;;;;;;;;;;7.10;99.90;;;6.22;100.00;98463.34;5423511;26;2242;-69
2024/04/10 00:42:05;;;;;;;;;;;7.10;99.90;;;6.18;100.00;98462.53;5429543;26;1569;-70
2024/04/10 00:44:32;;;;;;;;;;;7.10;99.90;;;6.27;100.00;98465.03;5428440;26;1631;-70
2024/04/10 00:46:59;;;;;;;;;;;7.10;99.90;;;6.23;100.00;98460.75;5434229;26;2662;-70
2024/04/10 00:49:27;;;;;;;;;;;7.20;99.90;;;6.17;100.00;98465.13;5435080;26;2782;-70
2024/04/10 00:51:54;;;;;;;;;;;7.20;99.90;;;6.26;100.00;98465.88;5432044;26;1815;-70
2024/04/10 00:54:22;;;;;;;;;;;7.20;99.90;;;6.27;100.00;98458.97;5402007;26;1890;-69
2024/04/10 00:56:50;;;;;;;;;;;7.20;99.90;;;6.18;100.00;98467.69;5424412;26;1774;-70
2024/04/10 00:59:17;;;;;;;;;;;7.20;99.90;;;6.33;100.00;98473.56;5421743;26;1564;-69
2024/04/10 01:01:44;;;;;;;;;;;7.20;99.90;;;6.21;100.00;98482.28;5430962;26;3780;-70
2024/04/10 01:04:12;;;;;;;;;;;7.20;99.90;;;6.30;100.00;98482.19;5440014;26;1537;-69
2024/04/10 01:06:39;;;;;;;;;;;7.30;99.90;;;6.30;100.00;98486.50;5426726;26;1576;-70
2024/04/10 01:09:06;;;;;;;;;;;7.20;99.90;;;6.26;100.00;98486.50;5426109;26;1891;-69
2024/04/10 01:11:33;;;;;;;;;;;7.20;99.90;;;6.32;100.00;98484.72;5429215;26;1586;-69
2024/04/10 01:14:00;;;;;;;;;;;7.20;99.90;;;6.28;100.00;98482.19;5431978;26;1895;-69
2024/04/10 01:16:27;;;;;;;;;;;7.20;99.90;;;6.28;100.00;98492.50;5426370;26;2284;-70
2024/04/10 01:18:54;;;;;;;;;;;7.20;99.90;;;6.36;100.00;98494.13;5427529;26;1586;-70
2024/04/10 01:21:21;;;;;;;;;;;7.20;99.90;;;6.22;100.00;98499.44;5432832;26;1579;-70
2024/04/10 01:23:48;;;;;;;;;;;7.20;99.90;;;6.37;100.00;98506.19;5425242;26;1772;-69
2024/04/10 01:26:15;;;;;;;;;;;7.30;99.90;;;6.41;100.00;98497.50;5428255;26;1712;-69
2024/04/10 01:28:42;;;;;;;;;;;7.30;99.90;;;6.33;100.00;98499.34;5429262;26;1910;-69
2024/04/10 01:31:08;;;;;;;;;;;7.40;99.90;;;6.33;100.00;98501.91;5426227;26;1579;-69
2024/04/10 01:33:35;;;;;;;;;;;7.30;99.90;;;6.40;100.00;98498.41;5427622;26;1837;-69
2024/04/10 01:36:07;;;;;;;;;;;7.30;99.90;;;6.31;100.00;98496.75;5428198;26;1581;-70
2024/04/10 01:38:35;;;;;;;;;;;7.30;99.90;;;6.25;100.00;98495.13;5431765;26;1544;-69
2024/04/10 01:41:02;;;;;;;;;;;7.20;99.90;;;6.24;100.00;98510.59;5427407;26;1559;-69
2024/04/10 01:43:29;;;;;;;;;;;7.10;99.90;;;6.14;100.00;98511.56;5431163;26;4118;-70
2024/04/10 01:45:56;;;;;;;;;;;7.10;99.90;;;5.95;100.00;98511.72;5426804;26;1715;-69
2024/04/10 01:48:23;;;;;;;;;;;7.10;99.90;;;5.94;100.00;98519.44;5425828;26;1586;-70
2024/04/10 01:50:50;;;;;;;;;;;7.00;99.90;;;5.88;100.00;98520.34;5435654;26;1866;-70
2024/04/10 01:53:17;;;;;;;;;;;7.00;99.90;;;5.89;100.00;98521.22;5428344;26;1844;-70
2024/04/10 01:55:44;;;;;;;;;;;7.00;99.90;;;5.74;100.00;98525.59;5438815;26;2123;-70
2024/04/10 01:58:11;;;;;;;;;;;6.90;99.90;;;5.92;100.00;98536.63;5436465;26;1517;-70
2024/04/10 02:00:38;;;;;;;;;;;6.90;99.90;;;5.80;100.00;98546.19;5420941;26;1567;-70
2024/04/10 02:03:06;;;;;;;;;;;6.90;99.90;;;5.87;100.00;98547.00;5423290;26;1560;-70
2024/04/10 02:05:33;;;;;;;;;;;6.80;99.90;;;5.71;100.00;98541.09;5427365;26;1599;-70
2024/04/10 02:08:00;;;;;;;;;;;6.80;99.90;;;5.59;100.00;98556.66;5432439;26;1560;-70
2024/04/10 02:10:27;;;;;;;;;;;6.80;99.90;;;5.61;100.00;98565.19;5430449;26;2213;-70
2024/04/10 02:12:54;;;;;;;;;;;6.80;99.90;;;5.48;100.00;98572.16;5427414;26;1883;-70
2024/04/10 02:15:21;;;;;;;;;;;6.70;99.90;;;5.56;100.00;98566.97;5426971;26;1596;-68
2024/04/10 02:17:48;;;;;;;;;;;6.70;99.90;;;5.52;100.00;98578.13;5427656;26;1814;-68
2024/04/10 02:20:16;;;;;;;;;;;6.60;99.90;;;5.48;100.00;98584.19;5430378;26;1696;-70
2024/04/10 02:22:43;;;;;;;;;;;6.50;99.90;;;5.53;100.00;98595.31;5423327;26;3818;-68
2024/04/10 02:25:10;;;;;;;;;;;6.50;99.90;;;5.37;100.00;98597.13;5421831;26;2822;-70
2024/04/10 02:27:37;;;;;;;;;;;6.50;99.90;;;5.45;100.00;98613.38;5423575;26;1552;-68
2024/04/10 02:30:06;;;;;;;;;;;6.60;99.90;;;5.41;100.00;98619.41;5424373;26;1654;-70
2024/04/10 02:32:33;;;;;;;;;;;6.60;99.90;;;5.53;100.00;98621.06;5429269;26;1572;-68
2024/04/10 02:35:00;;;;;;;;;;;6.50;99.90;;;5.33;100.00;98616.88;5426645;26;1989;-70
2024/04/10 02:37:27;;;;;;;;;;;6.50;99.90;;;5.34;100.00;98625.47;5431208;26;1592;-69
2024/04/10 02:39:54;;;;;;;;;;;6.50;99.90;;;5.26;100.00;98622.91;5424025;26;2335;-69
2024/04/10 02:42:21;;;;;;;;;;;6.50;99.90;;;5.20;100.00;98628.97;5426089;26;1645;-70
2024/04/10 02:44:51;;;;;;;;;;;6.40;99.90;;;5.22;100.00;98634.97;5429618;26;1527;-70
2024/04/10 02:47:19;;;;;;;;;;;6.30;99.90;;;5.02;100.00;98629.88;5426306;26;2708;-69
2024/04/10 02:49:46;;;;;;;;;;;6.30;99.90;;;5.12;100.00;98635.00;5423763;26;1660;-69
2024/04/10 02:52:14;;;;;;;;;;;6.30;99.90;;;5.03;100.00;98644.44;5426764;26;1602;-69
2024/04/10 02:54:41;;;;;;;;;;;6.20;99.90;;;5.13;100.00;98642.72;5427991;26;1866;-69
2024/04/10 02:57:07;;;;;;;;;;;6.10;99.90;;;5.01;100.00;98637.59;5429419;26;1626;-70
2024/04/10 02:59:34;;;;;;;;;;;6.10;99.90;;;5.00;100.00;98647.03;5424290;26;1539;-70
2024/04/10 03:02:02;;;;;;;;;;;6.10;99.90;;;5.00;100.00;98649.59;5427800;26;3637;-70
2024/04/10 03:04:29;;;;;;;;;;;6.10;99.90;;;5.13;100.00;98662.44;5425485;26;1676;-69
2024/04/10 03:06:56;;;;;;;;;;;6.00;99.90;;;4.91;100.00;98662.50;5427766;26;1931;-70
2024/04/10 03:09:23;;;;;;;;;;;6.10;99.90;;;4.94;100.00;98669.34;5426098;26;1556;-69
2024/04/10 03:11:50;;;;;;;;;;;6.20;99.90;;;5.01;100.00;98676.19;5427436;26;1600;-69
2024/04/10 03:14:17;;;;;;;;;;;6.10;99.90;;;4.90;100.00;98680.50;5430086;26;1840;-69
2024/04/10 03:16:44;;;;;;;;;;;6.10;99.90;;;4.97;100.00;98688.22;5427422;26;2764;-70
2024/04/10 03:19:14;;;;;;;;;;;6.10;99.90;;;4.98;100.00;98692.50;5432990;26;1558;-70
2024/04/10 03:21:41;;;;;;;;;;;6.20;99.90;;;4.95;100.00;98701.94;5422652;26;1618;-68
2024/04/10 03:24:08;;;;;;;;;;;6.20;99.90;;;4.94;100.00;98692.50;5429738;26;1615;-70
2024/04/10 03:26:35;;;;;;;;;;;6.10;99.90;;;4.85;100.00;98692.53;5428381;26;2269;-68
2024/04/10 03:29:02;;;;;;;;;;;6.10;99.90;;;4.85;100.00;98701.09;5422761;26;1604;-70
2024/04/10 03:31:30;;;;;;;;;;;6.10;99.90;;;4.87;100.00;98696.81;5430282;26;2608;-71
2024/04/10 03:33:56;;;;;;;;;;;6.10;99.90;;;4.90;100.00;98699.38;5424469;26;1892;-70
2024/04/10 03:36:24;;;;;;;;;;;6.00;99.90;;;4.82;100.00;98707.09;5433352;26;1696;-70
2024/04/10 03:38:51;;;;;;;;;;;6.00;99.90;;;4.69;100.00;98705.41;5419625;26;1575;-70
2024/04/10 03:41:20;;;;;;;;;;;5.90;99.90;;;4.70;100.00;98709.69;5428379;26;3755;-70
2024/04/10 03:43:48;;;;;;;;;;;5.90;99.90;;;4.73;100.00;98709.69;5399493;26;1573;-70
2024/04/10 03:46:15;;;;;;;;;;;5.90;99.90;;;4.66;100.00;98720.00;5432472;26;1524;-70
2024/04/10 03:48:43;;;;;;;;;;;5.90;99.90;;;4.63;100.00;98725.13;5427560;26;1535;-70
2024/04/10 03:51:10;;;;;;;;;;;5.90;99.90;;;4.54;100.00;98726.00;5419012;26;1561;-70
2024/04/10 03:53:37;;;;;;;;;;;5.90;99.90;;;4.58;100.00;98726.00;5424936;26;1896;-70
2024/04/10 03:56:04;;;;;;;;;;;5.90;99.90;;;4.55;100.00;98735.41;5427010;26;2207;-70
2024/04/10 03:58:31;;;;;;;;;;;5.90;99.90;;;4.55;100.00;98736.25;5425936;26;1627;-70
2024/04/10 04:00:58;;;;;;;;;;;5.80;99.90;;;4.58;100.00;98743.13;5422328;26;1563;-70
2024/04/10 04:03:25;;;;;;;;;;;5.80;99.90;;;4.45;100.00;98744.84;5431109;26;1596;-70
2024/04/10 04:05:52;;;;;;;;;;;5.80;99.90;;;4.51;100.00;98747.41;5435499;26;1720;-70
2024/04/10 04:08:20;;;;;;;;;;;5.80;99.90;;;4.43;100.00;98749.13;5439115;26;1300;-68
2024/04/10 04:10:47;;;;;;;;;;;5.70;99.90;;;4.39;100.00;98766.25;5436296;26;2552;-70
2024/04/10 04:13:14;;;;;;;;;;;5.70;99.90;;;4.34;100.00;98762.81;5453369;26;1679;-68
2024/04/10 04:15:41;;;;;;;;;;;5.70;99.90;;;4.41;100.00;98776.53;5428772;26;1934;-70
2024/04/10 04:18:09;;;;;;;;;;;5.70;99.90;;;4.35;100.00;98779.09;5433075;26;1590;-70
2024/04/10 04:20:36;;;;;;;;;;;5.70;99.90;;;4.27;100.00;98791.94;5428931;26;1575;-70
2024/04/10 04:23:03;;;;;;;;;;;5.60;99.90;;;4.33;100.00;98794.53;5434085;26;1508;-70
2024/04/10 04:25:33;;;;;;;;;;;5.60;99.90;;;4.17;100.00;98798.78;5405935;26;3708;-70
2024/04/10 04:27:59;;;;;;;;;;;5.60;99.90;;;4.27;100.00;98806.50;5423773;26;1710;-69
2024/04/10 04:30:27;;;;;;;;;;;5.60;99.90;;;4.27;100.00;98814.22;5432065;26;1548;-70
2024/04/10 04:32:54;;;;;;;;;;;5.60;99.90;;;4.25;100.00;98810.78;5430752;26;1594;-69
2024/04/10 04:35:21;;;;;;;;;;;5.60;99.90;;;4.22;100.00;98821.03;5431542;26;1864;-70
2024/04/10 04:37:56;;;;;;;;;;;5.60;99.90;;;4.30;100.00;98829.66;5428598;26;1543;-70
2024/04/10 04:40:30;;;;;;;;;;;5.60;99.90;;;4.30;100.00;98827.06;5429531;26;2255;-70
2024/04/10 04:42:58;;;;;;;;;;;5.60;99.90;;;4.38;100.00;98833.09;5427118;26;1563;-70
2024/04/10 04:45:26;;;;;;;;;;;5.60;99.90;;;4.26;100.00;98841.63;5428720;26;2662;-70
2024/04/10 04:47:53;;;;;;;;;;;5.60;99.90;;;4.29;100.00;98846.78;5425352;26;1747;-69
2024/04/10 04:50:20;;;;;;;;;;;5.60;99.90;;;4.27;100.00;98855.34;5430879;26;1245;-69
2024/04/10 04:52:47;;;;;;;;;;;5.60;99.90;;;4.27;100.00;98851.06;5423093;26;1575;-70
2024/04/10 04:55:14;;;;;;;;;;;5.50;99.90;;;4.19;100.00;98856.16;5425576;26;1837;-69
2024/04/10 04:57:41;;;;;;;;;;;5.50;99.90;;;4.24;100.00;98865.59;5435162;26;1795;-70
2024/04/10 05:00:11;;;;;;;;;;;5.40;99.90;;;4.03;100.00;98862.09;5428399;26;2537;-70
2024/04/10 05:02:39;;;;;;;;;;;5.40;99.90;;;4.01;100.00;98873.22;5435547;26;1411;-70
2024/04/10 05:05:13;;;;;;;;;;;5.30;99.90;;;4.11;100.00;98880.97;5433230;26;1373;-69
2024/04/10 05:07:41;;;;;;;;;;;5.20;99.90;;;4.13;100.00;98886.13;5428824;26;1322;-69
2024/04/10 05:10:09;;;;;;;;;;;5.20;99.90;;;4.02;100.00;98892.94;5437751;26;1445;-69
2024/04/10 05:12:38;;;;;;;;;;;5.20;99.90;;;4.05;100.00;98892.94;5431104;26;3867;-69
2024/04/10 05:15:08;;;;;;;;;;;5.20;99.90;;;4.14;100.00;98905.84;5427553;26;2712;-69
2024/04/10 05:17:35;;;;;;;;;;;5.20;99.90;;;4.17;100.00;98899.00;5426586;26;1392;-69
2024/04/10 05:20:04;;;;;;;;;;;5.20;99.90;;;4.28;100.00;98903.31;5426966;26;1453;-69
2024/04/10 05:22:31;;;;;;;;;;;5.30;99.90;;;4.29;100.00;98911.03;5431041;26;1303;-69
2024/04/10 05:24:58;;;;;;;;;;;5.30;99.90;;;4.29;100.00;98911.03;5424828;26;1424;-69
2024/04/10 05:27:27;;;;;;;;;;;5.40;99.90;;;4.38;100.00;98907.66;5432465;26;2193;-69
2024/04/10 05:29:59;;;;;;;;;;;5.50;99.90;;;4.48;100.00;98922.25;5429079;26;2680;-69
2024/04/10 05:32:27;;;;;;;;;;;5.50;99.90;;;4.48;100.00;98916.25;5432962;26;1434;-69
2024/04/10 05:34:54;;;;;;;;;;;5.60;99.90;;;4.54;100.00;98922.28;5410037;26;1882;-69
2024/04/10 05:37:22;;;;;;;;;;;5.70;99.90;;;4.67;100.00;98930.00;5435263;26;1293;-69
2024/04/10 05:39:50;;;;;;;;;;;5.70;99.90;;;4.63;100.00;98930.84;5430922;26;1471;-69
2024/04/10 05:42:17;;;;;;;;;;;5.80;99.90;;;4.79;100.00;98930.91;5434169;26;1947;-69
2024/04/10 05:44:44;;;;;;;;;;;5.90;99.90;;;4.78;100.00;98936.91;5427595;26;1166;-69
2024/04/10 05:47:11;;;;;;;;;;;5.90;99.90;;;4.75;100.00;98925.75;5425959;26;1395;-69
2024/04/10 05:49:38;;;;;;;;;;;5.90;99.90;;;4.79;100.00;98930.06;5426027;26;1183;-69
2024/04/10 05:52:05;;;;;;;;;;;5.90;99.90;;;4.81;100.00;98918.03;5424457;26;1403;-69
2024/04/10 05:54:32;;;;;;;;;;;6.00;99.90;;;4.86;100.00;98923.19;5440921;26;1906;-71
2024/04/10 05:56:59;;;;;;;;;;;6.00;99.90;;;4.98;100.00;98925.81;5429684;26;3646;-69
2024/04/10 05:59:26;;;;;;;;;;;6.00;99.90;;;4.99;100.00;98927.50;5428492;26;1482;-69
2024/04/10 06:01:53;;;;;;;;;;;6.00;99.90;;;4.90;100.00;98923.19;5431433;26;1410;-69
2024/04/10 06:04:20;;;;;;;;;;;6.10;99.90;;;4.98;100.00;98938.66;5424991;26;1419;-69
2024/04/10 06:06:47;;;;;;;;;;;6.10;99.90;;;4.91;100.00;98935.22;5457382;26;1384;-69
2024/04/10 06:09:14;;;;;;;;;;;6.10;99.90;;;5.17;100.00;98935.25;5428413;26;1413;-69
2024/04/10 06:11:41;;;;;;;;;;;6.10;99.90;;;5.21;100.00;98947.25;5431177;26;2221;-69
2024/04/10 06:14:08;;;;;;;;;;;6.20;99.90;;;5.43;100.00;98948.16;5424913;26;1883;-69
2024/04/10 06:16:35;;;;;;;;;;;6.30;99.90;;;5.29;100.00;98946.41;5426492;26;1315;-69
2024/04/10 06:19:03;;;;;;;;;;;6.40;99.90;;;5.18;100.00;98955.00;5429297;26;1491;-68
2024/04/10 06:21:29;;;;;;;;;;;6.20;99.90;;;5.55;100.00;98962.72;5424509;26;1410;-69
2024/04/10 06:23:56;;;;;;;;;;;6.40;99.90;;;5.40;100.00;98960.16;5427880;26;1895;-70
2024/04/10 06:26:23;;;;;;;;;;;6.30;99.90;;;5.64;100.00;98960.16;5429630;26;2612;-69
2024/04/10 06:28:50;;;;;;;;;;;6.40;99.90;;;5.83;100.00;98963.56;5425994;26;1362;-69
2024/04/10 06:31:17;;;;;;;;;;;6.50;99.90;;;5.86;100.00;98961.00;5426896;26;1613;-69
2024/04/10 06:33:44;;;;;;;;;;;6.60;99.90;;;6.08;100.00;98959.25;5427440;26;1492;-69
2024/04/10 06:36:11;;;;;;;;;;;6.80;99.90;;;6.03;100.00;98955.81;5420963;26;1882;-70
2024/04/10 06:38:38;;;;;;;;;;;7.00;99.90;;;6.48;100.00;98948.81;5428085;26;4182;-69
2024/04/10 06:41:06;;;;;;;;;;;7.10;99.90;;;6.24;100.00;98949.75;5424087;26;1116;-69
2024/04/10 06:43:33;;;;;;;;;;;7.20;99.90;;;6.55;100.00;98952.22;5415886;26;1281;-69
2024/04/10 06:46:08;;;;;;;;;;;7.30;99.90;;;6.88;100.00;98950.34;5430716;26;2819;-69
2024/04/10 06:48:35;;;;;;;;;;;7.50;99.90;;;6.69;100.00;98947.84;5429100;26;1238;-69
2024/04/10 06:51:04;;;;;;;;;;;7.50;99.90;;;6.73;100.00;98935.81;5424164;26;1185;-69
2024/04/10 06:53:32;;;;;;;;;;;7.70;99.90;;;6.56;100.00;98937.59;5425407;26;2579;-69
2024/04/10 06:56:01;;;;;;;;;;;7.70;99.90;;;6.17;100.00;98935.16;5439763;26;1876;-69
2024/04/10 06:58:29;;;;;;;;;;;7.50;99.90;;;6.38;100.00;98949.69;5455110;26;2625;-69
2024/04/10 07:01:04;;;;;;;;;;;7.30;99.90;;;6.40;100.00;98934.22;5423975;26;2233;-69
2024/04/10 07:03:35;;;;;;;;;;;7.40;99.90;;;6.91;100.00;98930.53;5425432;26;1284;-70
2024/04/10 07:06:11;;;;;;;;;;;7.60;99.90;;;7.09;100.00;98945.06;5422818;26;1564;-69
2024/04/10 07:08:40;;;;;;;;;;;7.80;99.90;;;6.74;100.00;98941.81;5423425;26;1028;-69
2024/04/10 07:11:16;;;;;;;;;;;7.70;99.90;;;6.91;100.00;98937.41;5420282;26;1597;-69
2024/04/10 07:13:50;;;;;;;;;;;7.80;99.90;;;7.31;100.00;98938.00;5424526;26;2442;-69
2024/04/10 07:16:18;;;;;;;;;;;8.00;99.90;;;6.94;100.00;98937.41;5420624;26;1833;-69
2024/04/10 07:18:46;;;;;;;;;;;7.90;99.90;;;7.02;100.00;98924.44;5425678;26;1400;-69
2024/04/10 07:21:14;;;;;;;;;;;7.90;99.90;;;7.21;100.00;98935.50;5436770;26;4557;-69
2024/04/10 07:23:42;;;;;;;;;;;8.10;99.90;;;7.30;100.00;98951.78;5439044;26;1367;-69
2024/04/10 07:26:29;;;;;;;;;;;8.10;99.90;;;7.49;100.00;98915.47;5437629;26;2754;-70
2024/04/10 07:28:57;;;;;;;;;;;8.20;99.90;;;7.55;100.00;98923.19;5420423;26;2959;-69
2024/04/10 07:31:28;;;;;;;;;;;8.20;99.90;;;7.84;100.00;98906.50;5427814;26;1086;-69
2024/04/10 07:33:59;;;;;;;;;;;8.50;99.90;;;7.54;100.00;98918.88;5421719;26;1344;-69
2024/04/10 07:36:26;;;;;;;;;;;8.60;99.90;;;7.95;100.00;98923.63;5424407;26;1868;-69
2024/04/10 07:38:54;;;;;;;;;;;8.70;99.90;;;7.88;100.00;98921.97;5423847;26;1085;-69
2024/04/10 07:41:22;;;;;;;;;;;8.80;99.90;;;7.79;100.00;98913.47;5439996;26;1290;-69
2024/04/10 07:43:49;;;;;;;;;;;8.80;99.90;;;7.89;100.00;98910.78;5425477;26;2619;-69
2024/04/10 07:46:18;;;;;;;;;;;8.80;99.90;;;7.98;100.00;98917.56;5423906;26;1372;-70
2024/04/10 07:48:52;;;;;;;;;;;8.80;99.90;;;8.07;100.00;98908.84;5440067;26;1396;-69
2024/04/10 07:51:20;;;;;;;;;;;8.70;99.90;;;8.24;100.00;98900.91;5432370;26;1086;-70
2024/04/10 07:53:47;;;;;;;;;;;8.80;99.90;;;8.27;100.00;98891.38;5427034;26;1145;-69
2024/04/10 07:56:15;;;;;;;;;;;8.90;99.90;;;8.36;100.00;98886.09;5432559;26;1877;-69
2024/04/10 07:58:42;;;;;;;;;;;9.00;99.90;;;8.54;100.00;98879.84;5409958;26;3788;-70
2024/04/10 08:01:10;;;;;;;;;;;9.20;99.90;;;8.69;100.00;98876.22;5439415;26;1189;-69
2024/04/10 08:03:37;;;;;;;;;;;9.40;99.90;;;8.83;100.00;98870.81;5428129;26;1376;-69
2024/04/10 08:06:07;;;;;;;;;;;9.50;99.90;;;9.41;100.00;98867.28;5429015;26;1219;-70
2024/04/10 08:08:35;;;;;;;;;;;9.80;99.90;;;9.24;100.00;98864.16;5431012;26;1291;-69
2024/04/10 08:11:04;;;;;;;;;;;10.00;99.90;;;9.48;100.00;98849.91;5423825;26;2180;-69
2024/04/10 08:13:31;;;;;;;;;;;10.20;99.90;;;9.89;100.00;98850.00;5440227;26;1088;-70
2024/04/10 08:16:04;;;;;;;;;;;10.20;99.90;;;10.07;100.00;98846.19;5427771;26;1845;-69
2024/04/10 08:18:38;;;;;;;;;;;10.60;99.90;;;9.94;100.00;98836.06;5458948;26;1205;-69
2024/04/10 08:21:10;;;;;;;;;;;10.70;99.90;;;10.29;100.00;98844.91;5429981;26;1191;-69
2024/04/10 08:23:38;;;;;;;;;;;11.00;99.90;;;10.58;100.00;98838.22;5432798;26;1269;-70
2024/04/10 08:26:13;;;;;;;;;;;11.30;99.90;;;10.78;100.00;98817.84;5427851;26;2731;-69
2024/04/10 08:28:45;;;;;;;;;;;11.40;99.90;;;11.53;100.00;98804.72;5433289;26;1318;-70
2024/04/10 08:31:16;;;;;;;;;;;12.30;99.90;;;13.11;100.00;98784.38;5427077;26;1601;-70
2024/04/10 08:33:44;;;;;;;;;;;13.90;99.90;;;13.62;100.00;98780.03;5441454;26;1420;-70
2024/04/10 08:36:12;;;;;;;;;;;;;;;14.38;100.00;98767.63;5434644;26;1844;-69
2024/04/10 08:38:40;;;;;;;;;;;15.80;99.90;;;15.18;100.00;98754.81;5432352;26;1345;-70
2024/04/10 08:41:15;;;;;;;;;;;16.40;99.90;;;14.38;100.00;98757.19;5427507;26;4082;-70
2024/04/10 08:43:44;;;;;;;;;;;16.80;99.90;;;14.77;100.00;98759.16;5442865;26;1208;-70
2024/04/10 08:46:12;;;;;;;;;;;17.20;99.90;;;14.72;100.00;98759.34;5424364;26;1218;-70
2024/04/10 08:48:42;;;;;;;;;;;16.80;99.90;;;14.74;100.00;98746.22;5441390;26;1301;-70
2024/04/10 08:51:14;;;;;;;;;;;17.20;99.90;;;14.93;100.00;98746.31;5424725;26;1663;-70
2024/04/10 08:53:43;;;;;;;;;;;16.70;99.90;;;13.91;100.00;98773.78;5425419;26;1250;-70
2024/04/10 08:56:11;;;;;;;;;;;16.80;99.90;;;14.07;100.00;98765.34;5424701;26;2055;-70
2024/04/10 08:58:39;;;;;;;;;;;16.60;99.60;;;15.07;100.00;98762.25;5428838;26;2623;-70
2024/04/10 09:01:07;;;;;;;;;;;16.90;98.30;;;13.95;100.00;98779.72;5432852;26;1183;-69
2024/04/10 09:03:35;;;;;;;;;;;16.20;99.90;;;12.92;100.00;98786.72;5441610;26;1322;-69
2024/04/10 09:06:06;;;;;;;;;;;15.20;99.60;;;12.79;100.00;98810.63;5426289;26;1468;-70
2024/04/10 09:08:34;;;;;;;;;;;14.90;99.90;;;13.81;100.00;98796.72;5428331;26;1245;-70
2024/04/10 09:11:01;;;;;;;;;;;14.20;99.90;;;14.17;100.00;98782.38;5423550;26;1684;-70
2024/04/10 09:13:28;;;;;;;;;;;14.40;99.90;;;15.02;100.00;98777.28;5431097;26;2307;-70
2024/04/10 09:15:59;;;;;;;;;;;14.60;99.90;;;14.62;100.00;98774.53;5425726;26;1908;-69
2024/04/10 09:18:27;;;;;;;;;;;15.20;99.90;;;15.00;100.00;98774.72;5443325;26;1361;-70
2024/04/10 09:21:07;;;;;;;;;;;15.00;99.90;;;14.52;100.00;98772.31;5430856;26;1263;-70
2024/04/10 09:23:37;;;;;;;;;;;15.30;99.90;;;14.67;100.00;98776.97;5429543;26;1305;-70
2024/04/10 09:26:05;;;;;;;;;;;15.40;99.90;;;13.91;100.00;98775.50;5427529;26;3938;-70
2024/04/10 09:28:35;;;;;;;;;;;15.90;99.20;;;14.12;100.00;98771.25;5435769;26;2679;-70
2024/04/10 09:31:02;;;;;;;;;;;15.70;99.70;;;15.56;100.00;98757.53;5429105;26;1562;-70
2024/04/10 09:33:33;;;;;;;;;;;16.00;99.90;;;16.33;100.00;98745.34;5431640;26;1356;-70
2024/04/10 09:36:05;;;;;;;;;;;17.10;99.90;;;15.27;100.00;98738.72;5430105;26;1837;-70
2024/04/10 09:38:33;;;;;;;;;;;17.70;97.20;;;14.88;100.00;98750.88;5430798;26;1365;-70
2024/04/10 09:41:03;;;;;;;;;;;17.20;97.00;;;14.44;100.00;98752.56;5433007;26;1285;-70
2024/04/10 09:43:33;;;;;;;;;;;16.40;96.20;;;15.16;100.00;98722.63;5423749;26;2684;-70
2024/04/10 09:46:03;;;;;;;;;;;16.20;95.40;;;14.91;100.00;98724.59;5425952;26;2735;-70
2024/04/10 09:48:32;;;;;;;;;;;15.80;96.20;;;15.82;100.00;98734.63;5435190;26;1571;-70
2024/04/10 09:51:04;;;;;;;;;;;15.70;96.30;;;16.15;100.00;98731.34;5428233;26;1184;-70
2024/04/10 09:53:35;;;;;;;;;;;16.80;96.80;;;16.19;100.00;98720.66;5441696;26;1583;-70
2024/04/10 09:56:07;;;;;;;;;;;17.40;95.30;;;16.29;100.00;98706.22;5427507;26;1891;-70
2024/04/10 09:58:36;;;;;;;;;;;17.90;94.00;;;17.73;100.00;98698.06;5431967;26;2310;-70
2024/04/10 10:01:03;;;;;;;;;;;18.30;94.10;;;16.27;100.00;98697.56;5429562;26;1579;-70
2024/04/10 10:03:31;;;;;;;;;;;18.30;93.00;;;17.27;100.00;98673.44;5429321;26;1708;-70
2024/04/10 10:06:08;;;;;;;;;;;18.90;92.70;;;19.10;100.00;98645.66;5429739;26;1600;-70
2024/04/10 10:08:36;;;;;;;;;;;19.80;92.90;;;17.11;100.00;98650.59;5429310;26;1569;-70
2024/04/10 10:11:05;;;;;;;;;;;20.20;88.80;;;18.59;100.00;98643.38;5428160;26;3993;-69
2024/04/10 10:13:44;;;;;;;;;;;19.40;90.20;;;18.38;100.00;98603.41;5416683;26;2758;-70
2024/04/10 10:16:12;;;;;;;;;;;19.40;83.00;;;18.74;100.00;98610.03;5426808;26;1891;-68
2024/04/10 10:18:39;;;;;;;;;;;19.70;82.30;;;20.02;100.00;98608.31;5431679;26;1720;-69
2024/04/10 10:21:08;;;;;;;;;;;20.20;84.40;;;18.28;100.00;98628.50;5427517;26;1742;-70
2024/04/10 10:23:40;;;;;;;;;;;19.90;84.20;;;15.98;100.00;98654.44;5437738;26;2227;-70
2024/04/10 10:26:09;;;;;;;;;;;18.70;79.60;;;15.34;100.00;98676.53;5430980;26;2520;-70
2024/04/10 10:28:36;;;;;;;;;;;17.60;81.20;;;13.57;100.00;98694.13;5429201;26;1604;-70
2024/04/10 10:31:14;;;;;;;;;;;16.30;80.70;;;13.51;100.00;98681.28;5437571;26;1575;-69
2024/04/10 10:33:42;;;;;;;;;;;15.50;80.50;;;13.00;100.00;98697.00;5422848;26;1580;-69
2024/04/10 10:36:09;;;;;;;;;;;14.90;81.40;;;12.74;100.00;98707.41;5428394;26;1877;-70
2024/04/10 10:38:38;;;;;;;;;;;14.50;83.30;;;12.86;100.00;98716.56;5436634;26;2338;-70
2024/04/10 10:41:10;;;;;;;;;;;14.20;86.10;;;14.55;100.00;98684.25;5434299;26;1694;-70
2024/04/10 10:43:44;;;;;;;;;;;14.60;84.20;;;16.60;100.00;98654.06;5426308;26;2718;-70
2024/04/10 10:46:12;;;;;;;;;;;15.50;85.20;;;17.59;100.00;98611.34;5426775;26;1647;-69
2024/04/10 10:48:39;;;;;;;;;;;16.00;82.50;;;17.18;100.00;98645.03;5425941;26;1387;-70
2024/04/10 10:51:06;;;;;;;;;;;16.40;85.00;;;19.01;100.00;98606.72;5426937;26;1268;-69
2024/04/10 10:53:35;;;;;;;;;;;17.40;83.20;;;17.92;99.78;98613.88;5436658;26;4252;-71
2024/04/10 10:56:03;;;;;;;;;;;17.80;79.60;;;19.44;100.00;98610.19;5426869;26;1849;-70
2024/04/10 10:58:30;;;;;;;;;;;18.90;81.90;;;18.87;100.00;98607.56;5435550;26;1817;-70
2024/04/10 11:00:57;;;;;;;;;;;19.50;80.50;;;19.24;100.00;98613.22;5424722;26;2614;-71
2024/04/10 11:03:26;;;;;;;;;;;20.10;81.40;;;18.40;97.62;98587.53;5427167;26;1580;-71
2024/04/10 11:06:09;;;;;;;;;;;;;;;18.45;99.79;98600.41;5426557;26;1334;-70
2024/04/10 11:08:37;;;;;;;;;;;19.80;73.50;;;18.62;99.85;98613.41;5435921;26;1278;-71
2024/04/10 11:11:04;;;;;;;;;;;20.30;77.80;;;19.43;100.00;98620.81;5428238;26;1680;-71
2024/04/10 11:13:35;;;;;;;;;;;20.80;79.50;;;17.82;97.28;98604.84;5428637;26;2255;-70
2024/04/10 11:16:02;;;;;;;;;;;21.20;72.10;;;18.37;99.08;98611.38;5423341;26;1865;-70
2024/04/10 11:18:29;;;;;;;;;;;20.70;74.60;;;17.60;100.00;98618.25;5427939;26;1242;-70
2024/04/10 11:20:56;;;;;;;;;;;20.50;74.00;;;17.26;99.86;98627.09;5430402;26;1777;-70
2024/04/10 11:23:25;;;;;;;;;;;19.80;73.70;;;17.58;98.41;98612.25;5425784;26;1088;-71
2024/04/10 11:25:53;;;;;;;;;;;19.70;73.20;;;17.01;99.40;98623.13;5424005;26;2368;-69
2024/04/10 11:28:20;;;;;;;;;;;19.50;74.00;;;16.58;97.62;98613.97;5429962;26;2682;-70
2024/04/10 11:30:46;;;;;;;;;;;19.60;72.30;;;15.97;97.97;98629.19;5427161;26;1647;-70
2024/04/10 11:33:13;;;;;;;;;;;18.70;72.70;;;15.57;98.48;98636.22;5439280;26;1198;-70